Time;durP1;ratioP1;P1;durP2;ratioP2;P2;SDS_P1;SDS_P2;PMS_P1;PMS_P2;Temp;Humidity;BMP_temperature;BMP_pressure;BME280_temperature;BME280_humidity;BME280_pressure;Samples;Min_cycle;Max_cycle;Signal;HPM_P1;HPM_P2
2022/03/12 00:00:36;;;;;;;3.95;3.47;;;-1.30;56.00;;;;;;5111632;28;20107;-62
2022/03/12 00:03:02;;;;;;;3.33;3.00;;;-1.30;56.10;;;;;;5114121;28;20023;-62
2022/03/12 00:05:30;;;;;;;3.20;2.90;;;-1.30;56.00;;;;;;5101877;28;20030;-63
2022/03/12 00:07:58;;;;;;;2.58;2.38;;;-1.30;56.30;;;;;;5103522;28;20032;-62
2022/03/12 00:10:24;;;;;;;3.92;3.17;;;-1.40;56.50;;;;;;5115022;28;20032;-63
2022/03/12 00:12:51;;;;;;;3.47;3.17;;;-1.40;56.70;;;;;;5115016;28;20032;-62
2022/03/12 00:15:18;;;;;;;3.33;3.03;;;-1.40;57.00;;;;;;5113758;28;20106;-62
2022/03/12 00:17:45;;;;;;;3.28;2.60;;;-1.40;57.30;;;;;;5114904;28;20403;-62
2022/03/12 00:20:13;;;;;;;3.20;2.90;;;-1.40;57.40;;;;;;5106513;28;20016;-63
2022/03/12 00:22:46;;;;;;;3.42;2.95;;;-1.50;57.30;;;;;;5108351;28;20024;-63
2022/03/12 00:25:16;;;;;;;3.20;3.00;;;-1.50;57.30;;;;;;5114825;28;20016;-62
2022/03/12 00:27:43;;;;;;;3.38;3.03;;;-1.40;57.10;;;;;;5113700;28;20103;-62
2022/03/12 00:30:10;;;;;;;5.15;3.58;;;-1.40;56.90;;;;;;5111790;28;20479;-62
2022/03/12 00:32:37;;;;;;;3.00;2.55;;;-1.40;57.20;;;;;;5102164;28;20095;-62
2022/03/12 00:35:08;;;;;;;4.35;3.38;;;-1.50;57.30;;;;;;5114177;28;20031;-62
2022/03/12 00:37:33;;;;;;;3.33;3.10;;;-1.40;57.50;;;;;;5097566;28;20043;-62
2022/03/12 00:39:59;;;;;;;5.43;3.38;;;-1.50;57.60;;;;;;5091386;28;20016;-62
2022/03/12 00:42:25;;;;;;;4.15;3.55;;;-1.40;58.00;;;;;;5107117;28;20063;-63
2022/03/12 00:44:50;;;;;;;3.22;2.92;;;-1.40;58.30;;;;;;5114368;28;20106;-62
2022/03/12 00:47:16;;;;;;;3.80;3.40;;;-1.50;58.50;;;;;;5114332;28;20028;-62
2022/03/12 00:49:44;;;;;;;3.10;2.90;;;-1.50;58.80;;;;;;5111245;28;20076;-62
2022/03/12 00:52:10;;;;;;;3.85;3.45;;;-1.60;58.60;;;;;;5091097;28;20024;-62
2022/03/12 00:54:36;;;;;;;4.00;3.28;;;-1.50;58.80;;;;;;5114103;28;20027;-62
2022/03/12 00:57:02;;;;;;;4.18;3.78;;;-1.50;58.60;;;;;;5092335;28;20503;-62
2022/03/12 00:59:28;;;;;;;2.83;2.60;;;-1.50;58.60;;;;;;5113928;28;20114;-62
2022/03/12 01:01:53;;;;;;;3.13;2.60;;;-1.60;58.50;;;;;;5113988;28;20121;-63
2022/03/12 01:04:19;;;;;;;3.67;3.10;;;-1.60;58.50;;;;;;5104859;28;20020;-62
2022/03/12 01:06:46;;;;;;;3.45;3.15;;;-1.60;58.70;;;;;;5101549;28;20054;-62
2022/03/12 01:09:11;;;;;;;4.25;3.40;;;-1.60;58.50;;;;;;5113774;28;20028;-62
2022/03/12 01:11:38;;;;;;;4.80;3.80;;;-1.50;58.50;;;;;;5113777;28;20023;-62
2022/03/12 01:14:06;;;;;;;3.00;2.60;;;-1.50;58.30;;;;;;5091616;28;20030;-62
2022/03/12 01:16:33;;;;;;;3.30;3.00;;;-1.60;58.20;;;;;;5112427;28;20517;-62
2022/03/12 01:18:59;;;;;;;2.40;2.30;;;-1.60;58.20;;;;;;5113480;28;20035;-62
2022/03/12 01:21:24;;;;;;;4.32;3.65;;;-1.60;58.10;;;;;;5090417;28;20028;-62
2022/03/12 01:23:51;;;;;;;3.70;3.25;;;-1.60;58.50;;;;;;5110272;28;20023;-62
2022/03/12 01:26:18;;;;;;;3.72;3.35;;;-1.60;58.50;;;;;;5113547;28;20069;-62
2022/03/12 01:28:45;;;;;;;3.38;2.97;;;-1.50;58.50;;;;;;5113451;28;20047;-62
2022/03/12 01:31:12;;;;;;;4.15;3.45;;;-1.60;58.30;;;;;;5104607;28;20046;-62
2022/03/12 01:33:37;;;;;;;3.90;3.50;;;-1.60;58.40;;;;;;5113258;28;20047;-62
2022/03/12 01:36:05;;;;;;;4.75;3.75;;;-1.60;58.10;;;;;;5108369;28;20062;-63
2022/03/12 01:38:46;;;;;;;2.80;2.60;;;-1.60;58.00;;;;;;5102643;28;20053;-63
2022/03/12 01:41:12;;;;;;;4.72;3.72;;;-1.60;58.00;;;;;;5113309;28;20026;-63
2022/03/12 01:43:37;;;;;;;4.47;3.80;;;-1.60;58.20;;;;;;5100577;28;20543;-62
2022/03/12 01:46:10;;;;;;;3.70;3.40;;;-1.50;58.20;;;;;;5109447;28;20027;-62
2022/03/12 01:48:41;;;;;;;3.85;3.40;;;-1.50;57.90;;;;;;5111247;28;20166;-62
2022/03/12 01:51:07;;;;;;;3.75;2.67;;;-1.50;57.80;;;;;;5103193;28;20429;-63
2022/03/12 01:53:33;;;;;;;4.32;3.72;;;-1.60;58.00;;;;;;5107794;28;20034;-62
2022/03/12 01:55:59;;;;;;;6.00;3.90;;;-1.50;58.10;;;;;;5112899;28;20031;-62
2022/03/12 01:58:24;;;;;;;4.20;3.72;;;-1.50;58.10;;;;;;5112850;28;20042;-62
2022/03/12 02:00:53;;;;;;;5.07;4.03;;;-1.50;58.00;;;;;;5112918;28;20024;-62
2022/03/12 02:03:38;;;;;;;2.85;2.65;;;-1.50;57.90;;;;;;5105675;28;20099;-62
2022/03/12 02:06:04;;;;;;;4.00;3.20;;;-1.60;57.80;;;;;;5103852;28;20016;-62
2022/03/12 02:08:30;;;;;;;2.70;2.50;;;-1.60;58.00;;;;;;5104914;28;20035;-62
2022/03/12 02:10:57;;;;;;;3.88;3.45;;;-1.60;58.00;;;;;;5090814;28;20020;-62
2022/03/12 02:13:25;;;;;;;4.10;3.67;;;-1.60;58.00;;;;;;5084745;28;20050;-63
2022/03/12 02:16:03;;;;;;;5.65;4.10;;;-1.50;57.80;;;;;;5106840;28;20019;-62
2022/03/12 02:18:29;;;;;;;4.13;3.72;;;-1.50;57.90;;;;;;5111775;28;20107;-62
2022/03/12 02:20:55;;;;;;;4.30;3.60;;;-1.50;57.90;;;;;;5100483;28;20092;-63
2022/03/12 02:23:20;;;;;;;4.10;2.67;;;-1.50;57.80;;;;;;5106117;28;20026;-62
2022/03/12 02:25:46;;;;;;;4.22;3.47;;;-1.50;57.70;;;;;;5112068;28;20019;-62
2022/03/12 02:28:19;;;;;;;3.13;2.75;;;-1.60;57.80;;;;;;5106145;28;20111;-63
2022/03/12 02:30:51;;;;;;;4.97;3.60;;;-1.60;57.80;;;;;;5112523;28;20028;-62
2022/03/12 02:33:29;;;;;;;4.13;3.33;;;-1.60;58.00;;;;;;5112286;28;20067;-62
2022/03/12 02:35:57;;;;;;;3.67;3.08;;;-1.50;57.80;;;;;;5112139;28;20024;-62
2022/03/12 02:38:24;;;;;;;4.63;3.35;;;-1.50;57.50;;;;;;5088979;28;20041;-63
2022/03/12 02:40:51;;;;;;;2.88;2.67;;;-1.50;57.00;;;;;;5110506;28;20020;-63
2022/03/12 02:43:25;;;;;;;3.33;3.03;;;-1.60;56.80;;;;;;5103207;28;20025;-63
2022/03/12 02:45:53;;;;;;;2.75;2.55;;;-1.50;56.60;;;;;;5112476;28;20098;-62
2022/03/12 02:48:19;;;;;;;4.47;3.40;;;-1.60;56.80;;;;;;5112220;28;20024;-62
2022/03/12 02:50:45;;;;;;;3.72;3.22;;;-1.60;57.30;;;;;;5103232;28;20028;-62
2022/03/12 02:53:12;;;;;;;4.15;3.47;;;-1.50;57.50;;;;;;5107252;28;20019;-62
2022/03/12 02:55:41;;;;;;;4.20;3.72;;;-1.50;57.70;;;;;;5098560;28;20023;-63
2022/03/12 02:58:09;;;;;;;8.07;4.70;;;-1.50;58.10;;;;;;5111993;28;20028;-62
2022/03/12 03:00:37;;;;;;;4.90;3.00;;;-1.50;58.40;;;;;;5112121;28;20015;-62
2022/03/12 03:03:05;;;;;;;5.15;4.40;;;-1.60;58.40;;;;;;5101261;28;20017;-62
2022/03/12 03:05:41;;;;;;;5.50;4.40;;;-1.50;58.80;;;;;;5109104;28;20111;-62
2022/03/12 03:08:09;;;;;;;4.68;3.30;;;-1.50;58.90;;;;;;5094870;28;20024;-62
2022/03/12 03:10:39;;;;;;;6.65;5.00;;;-1.50;58.90;;;;;;5111871;28;20027;-62
2022/03/12 03:13:17;;;;;;;6.47;5.20;;;-1.50;59.20;;;;;;5097101;28;20027;-62
2022/03/12 03:15:59;;;;;;;4.47;3.60;;;-1.50;59.30;;;;;;5111997;28;20542;-62
2022/03/12 03:18:32;;;;;;;6.00;3.40;;;-1.60;59.30;;;;;;5102653;28;20346;-63
2022/03/12 03:20:59;;;;;;;6.05;4.53;;;-1.70;59.30;;;;;;5088759;28;20028;-62
2022/03/12 03:23:27;;;;;;;7.32;5.75;;;-1.70;59.60;;;;;;5098799;28;20429;-64
2022/03/12 03:25:53;;;;;;;8.55;5.13;;;-1.70;60.10;;;;;;5111825;28;20398;-63
2022/03/12 03:28:19;;;;;;;4.47;3.33;;;-1.70;59.60;;;;;;5103243;28;20058;-63
2022/03/12 03:30:45;;;;;;;5.53;3.78;;;-1.80;59.50;;;;;;5098593;28;20024;-63
2022/03/12 03:33:16;;;;;;;5.63;4.95;;;-1.80;59.70;;;;;;5111752;28;20019;-64
2022/03/12 03:35:42;;;;;;;4.25;3.22;;;-1.80;60.00;;;;;;5111835;28;20047;-64
2022/03/12 03:38:10;;;;;;;6.93;5.60;;;-1.80;59.90;;;;;;5115116;28;20043;-63
2022/03/12 03:40:36;;;;;;;6.00;5.10;;;-1.80;60.20;;;;;;5115784;28;20016;-63
2022/03/12 03:43:06;;;;;;;4.22;3.50;;;-1.70;60.40;;;;;;5115616;28;20031;-63
2022/03/12 03:45:31;;;;;;;6.28;5.25;;;-1.70;60.80;;;;;;5103743;28;20020;-63
2022/03/12 03:47:58;;;;;;;7.15;5.50;;;-1.70;60.20;;;;;;5112478;28;20473;-64
2022/03/12 03:50:25;;;;;;;7.10;5.75;;;-1.60;60.10;;;;;;5105336;28;20024;-64
2022/03/12 03:52:56;;;;;;;7.35;6.38;;;-1.60;60.00;;;;;;5115134;28;20467;-63
2022/03/12 03:55:26;;;;;;;6.07;3.78;;;-1.50;60.00;;;;;;5114287;28;20035;-63
2022/03/12 03:57:56;;;;;;;7.72;6.13;;;-1.60;59.90;;;;;;5115417;28;20038;-63
2022/03/12 04:00:22;;;;;;;6.75;4.90;;;-1.60;60.00;;;;;;5114681;28;20107;-63
2022/03/12 04:02:55;;;;;;;8.80;6.93;;;-1.60;59.90;;;;;;5101135;28;20491;-63
2022/03/12 04:05:22;;;;;;;7.78;6.00;;;-1.70;60.10;;;;;;5115047;28;20406;-63
2022/03/12 04:07:48;;;;;;;7.32;5.97;;;-1.70;60.30;;;;;;5103731;28;20020;-63
2022/03/12 04:10:13;;;;;;;7.97;6.47;;;-1.70;60.50;;;;;;5115125;28;20026;-63
2022/03/12 04:12:39;;;;;;;8.63;6.32;;;-1.60;60.50;;;;;;5114964;28;20038;-63
2022/03/12 04:15:06;;;;;;;7.10;5.90;;;-1.60;60.40;;;;;;5113668;28;20478;-63
2022/03/12 04:17:34;;;;;;;7.43;5.90;;;-1.60;60.40;;;;;;5111018;28;20384;-63
2022/03/12 04:20:00;;;;;;;7.15;5.53;;;-1.50;60.30;;;;;;5092637;28;20020;-63
2022/03/12 04:22:26;;;;;;;8.38;6.38;;;-1.60;60.30;;;;;;5091473;28;20051;-63
2022/03/12 04:24:52;;;;;;;7.45;4.38;;;-1.60;60.40;;;;;;5113230;28;20047;-64
2022/03/12 04:27:17;;;;;;;7.43;5.70;;;-1.70;60.20;;;;;;5114813;28;20049;-63
2022/03/12 04:29:43;;;;;;;8.88;6.50;;;-1.70;60.60;;;;;;5114608;28;20024;-63
2022/03/12 04:32:10;;;;;;;8.00;6.45;;;-1.70;60.50;;;;;;5114762;28;20066;-63
2022/03/12 04:34:36;;;;;;;7.18;3.92;;;-1.60;60.50;;;;;;5114645;28;20471;-63
2022/03/12 04:37:03;;;;;;;7.82;5.80;;;-1.60;60.50;;;;;;5093889;28;20450;-62
2022/03/12 04:39:30;;;;;;;5.93;5.20;;;-1.60;60.70;;;;;;5108906;28;20068;-62
2022/03/12 04:41:56;;;;;;;4.75;3.60;;;-1.50;60.50;;;;;;5114453;28;20030;-62
2022/03/12 04:44:22;;;;;;;7.90;5.65;;;-1.50;60.30;;;;;;5114367;28;20054;-65
2022/03/12 04:46:48;;;;;;;7.70;6.00;;;-1.50;60.40;;;;;;5112792;28;20027;-63
2022/03/12 04:49:14;;;;;;;7.20;5.88;;;-1.40;60.30;;;;;;5112419;28;20019;-63
2022/03/12 04:51:43;;;;;;;6.55;5.50;;;-1.40;60.30;;;;;;5099813;28;20036;-63
2022/03/12 04:54:08;;;;;;;6.65;5.93;;;-1.40;60.30;;;;;;5094942;28;20090;-64
2022/03/12 04:56:35;;;;;;;7.97;4.22;;;-1.30;60.30;;;;;;5085852;28;20039;-63
2022/03/12 04:59:00;;;;;;;7.95;6.05;;;-1.30;60.30;;;;;;5099907;28;20026;-63
2022/03/12 05:01:28;;;;;;;9.60;7.60;;;-1.20;60.70;;;;;;5087544;28;20104;-63
2022/03/12 05:03:53;;;;;;;14.05;8.95;;;-1.10;61.20;;;;;;5088908;28;20075;-63
2022/03/12 05:06:19;;;;;;;13.48;9.90;;;-1.00;60.30;;;;;;5092684;28;20019;-63
2022/03/12 05:08:46;;;;;;;15.85;9.65;;;-0.90;60.10;;;;;;5085886;28;20032;-63
2022/03/12 05:11:12;;;;;;;10.88;8.35;;;-0.70;60.00;;;;;;5086567;28;20377;-63
2022/03/12 05:13:37;;;;;;;7.45;4.82;;;-0.60;59.90;;;;;;5087408;28;20054;-63
2022/03/12 05:16:08;;;;;;;8.95;6.50;;;-0.60;59.90;;;;;;5080434;28;20032;-64
2022/03/12 05:18:39;;;;;;;7.20;5.63;;;-0.50;60.00;;;;;;5110275;28;20020;-63
2022/03/12 05:21:06;;;;;;;7.75;4.88;;;-0.30;59.70;;;;;;5104424;28;20027;-64
2022/03/12 05:23:33;;;;;;;9.75;6.43;;;-0.30;59.60;;;;;;5082220;28;20035;-64
2022/03/12 05:25:59;;;;;;;9.30;6.80;;;-0.10;59.80;;;;;;5113611;28;20377;-64
2022/03/12 05:28:29;;;;;;;8.55;6.38;;;0.00;59.30;;;;;;5088400;28;20032;-64
2022/03/12 05:30:57;;;;;;;8.77;4.53;;;0.20;59.00;;;;;;5112405;28;20034;-63
2022/03/12 05:33:23;;;;;;;4.72;3.90;;;0.20;59.00;;;;;;5112077;28;20436;-63
2022/03/12 05:35:51;;;;;;;7.70;4.43;;;0.30;59.30;;;;;;5113416;28;20053;-63
2022/03/12 05:38:17;;;;;;;7.38;4.55;;;0.40;59.60;;;;;;5113091;28;20043;-63
2022/03/12 05:40:44;;;;;;;7.85;4.28;;;0.40;60.10;;;;;;5113311;28;20494;-63
2022/03/12 05:43:17;;;;;;;7.75;4.40;;;0.60;60.30;;;;;;5113697;28;20020;-64
2022/03/12 05:45:48;;;;;;;8.43;6.05;;;0.80;60.20;;;;;;5097938;28;20094;-63
2022/03/12 05:48:15;;;;;;;6.63;4.70;;;1.10;59.30;;;;;;5113028;28;20046;-63
2022/03/12 05:50:43;;;;;;;10.48;5.40;;;1.20;58.60;;;;;;5106523;28;20085;-64
2022/03/12 05:53:10;;;;;;;7.90;5.18;;;1.40;58.70;;;;;;5103993;28;20024;-63
2022/03/12 05:55:40;;;;;;;9.18;7.07;;;1.60;58.60;;;;;;5112952;28;20034;-63
2022/03/12 05:58:08;;;;;;;8.15;6.90;;;2.00;57.70;;;;;;5110905;28;20104;-63
2022/03/12 06:00:34;;;;;;;9.63;5.32;;;2.50;56.30;;;;;;5096379;28;20463;-63
2022/03/12 06:03:01;;;;;;;7.57;4.60;;;2.80;55.90;;;;;;5108008;28;20016;-64
2022/03/12 06:05:27;;;;;;;8.07;6.47;;;3.10;56.00;;;;;;5112842;28;20028;-64
2022/03/12 06:07:54;;;;;;;7.85;5.88;;;3.50;54.90;;;;;;5112770;28;20030;-63
2022/03/12 06:10:34;;;;;;;7.88;5.22;;;4.00;52.80;;;;;;5112749;28;20387;-63
2022/03/12 06:13:00;;;;;;;6.45;4.32;;;4.50;52.80;;;;;;5111419;28;20028;-64
2022/03/12 06:15:27;;;;;;;6.05;4.03;;;4.90;52.80;;;;;;5112712;28;20039;-64
2022/03/12 06:17:53;;;;;;;6.85;4.40;;;5.30;52.60;;;;;;5108492;28;20028;-64
2022/03/12 06:20:21;;;;;;;9.30;5.20;;;5.60;51.90;;;;;;5090627;28;20043;-64
2022/03/12 06:22:52;;;;;;;7.45;5.05;;;5.90;51.00;;;;;;5100689;28;20293;-63
2022/03/12 06:25:20;;;;;;;5.70;4.32;;;6.30;50.30;;;;;;5112708;28;20456;-63
2022/03/12 06:27:53;;;;;;;6.00;4.63;;;6.60;49.20;;;;;;5112833;28;20379;-65
2022/03/12 06:30:24;;;;;;;7.57;4.95;;;6.90;47.90;;;;;;5111545;28;20483;-65
2022/03/12 06:32:51;;;;;;;5.00;3.50;;;7.00;48.00;;;;;;5112980;28;20383;-65
2022/03/12 06:35:18;;;;;;;5.90;3.97;;;7.00;47.60;;;;;;5111486;28;20517;-65
2022/03/12 06:37:45;;;;;;;5.82;3.53;;;7.10;46.90;;;;;;5113017;28;20040;-65
2022/03/12 06:40:14;;;;;;;6.20;3.72;;;7.20;45.90;;;;;;5112681;28;20032;-65
2022/03/12 06:42:42;;;;;;;5.50;4.40;;;7.00;45.50;;;;;;5111344;28;20020;-64
2022/03/12 06:45:09;;;;;;;6.40;3.72;;;6.60;45.70;;;;;;5111092;28;20223;-65
2022/03/12 06:47:38;;;;;;;4.75;3.83;;;6.20;46.30;;;;;;5111217;28;20051;-64
2022/03/12 06:50:08;;;;;;;6.18;3.70;;;5.90;46.50;;;;;;5110250;28;20471;-64
2022/03/12 06:52:34;;;;;;;7.13;3.80;;;5.50;46.70;;;;;;5087766;28;20025;-64
2022/03/12 06:55:01;;;;;;;5.40;3.85;;;5.10;47.30;;;;;;5101545;28;20024;-64
2022/03/12 06:57:26;;;;;;;4.88;3.38;;;4.80;47.60;;;;;;5112128;28;20023;-64
2022/03/12 06:59:52;;;;;;;4.03;3.17;;;4.50;47.90;;;;;;5103464;28;20057;-64
2022/03/12 07:02:18;;;;;;;6.53;4.60;;;4.20;48.40;;;;;;5102440;28;20024;-63
2022/03/12 07:04:44;;;;;;;6.90;5.10;;;4.00;48.10;;;;;;5110204;28;20020;-63
2022/03/12 07:07:10;;;;;;;8.15;4.07;;;3.90;48.20;;;;;;5099429;28;20074;-64
2022/03/12 07:09:37;;;;;;;6.65;3.72;;;3.70;48.40;;;;;;5108562;28;20110;-64
2022/03/12 07:12:03;;;;;;;9.32;5.18;;;3.60;48.90;;;;;;5115771;28;20024;-64
2022/03/12 07:14:29;;;;;;;6.75;3.90;;;3.50;48.90;;;;;;5114994;28;20027;-64
2022/03/12 07:16:56;;;;;;;8.77;5.95;;;3.40;48.90;;;;;;5116220;28;20060;-64
2022/03/12 07:19:22;;;;;;;7.20;4.80;;;3.40;49.00;;;;;;5113403;28;20019;-64
2022/03/12 07:21:51;;;;;;;6.82;5.13;;;3.30;49.10;;;;;;5083059;28;20408;-63
2022/03/12 07:24:17;;;;;;;5.82;4.20;;;3.30;49.10;;;;;;5116011;28;20084;-64
2022/03/12 07:26:43;;;;;;;6.32;5.18;;;3.20;49.10;;;;;;5100478;28;20025;-63
2022/03/12 07:29:09;;;;;;;5.57;3.83;;;3.20;49.30;;;;;;5088104;28;20031;-63
2022/03/12 07:31:38;;;;;;;5.47;4.05;;;3.20;49.40;;;;;;5115859;28;20475;-63
2022/03/12 07:34:07;;;;;;;7.95;5.20;;;3.10;49.60;;;;;;5115764;28;20403;-64
2022/03/12 07:36:33;;;;;;;5.20;3.80;;;3.20;49.40;;;;;;5115370;28;20102;-63
2022/03/12 07:39:02;;;;;;;7.20;4.80;;;3.20;49.30;;;;;;5115593;28;20085;-63
2022/03/12 07:41:29;;;;;;;6.45;3.95;;;3.20;49.40;;;;;;5115714;28;20024;-63
2022/03/12 07:43:54;;;;;;;5.07;3.17;;;3.20;49.40;;;;;;5109053;28;20016;-63
2022/03/12 07:46:21;;;;;;;4.10;3.08;;;3.10;49.50;;;;;;5115433;28;20023;-63
2022/03/12 07:48:47;;;;;;;5.82;4.03;;;3.10;49.60;;;;;;5112629;28;20395;-63
2022/03/12 07:51:13;;;;;;;8.93;4.50;;;3.20;49.30;;;;;;5103002;28;20024;-64
2022/03/12 07:53:39;;;;;;;6.47;3.42;;;3.20;49.00;;;;;;5115340;28;20410;-63
2022/03/12 07:56:07;;;;;;;5.53;3.90;;;3.20;49.10;;;;;;5115314;28;20027;-63
2022/03/12 07:58:33;;;;;;;5.05;3.05;;;3.10;49.30;;;;;;5108336;28;20063;-63
2022/03/12 08:00:59;;;;;;;5.90;4.10;;;3.10;49.40;;;;;;5093768;28;20012;-63
2022/03/12 08:03:28;;;;;;;2.90;2.70;;;3.20;49.30;;;;;;5113357;28;20024;-65
2022/03/12 08:05:55;;;;;;;3.95;3.45;;;3.20;49.10;;;;;;5115139;28;20020;-65
2022/03/12 08:08:21;;;;;;;4.00;3.10;;;3.20;49.40;;;;;;5114968;28;20391;-64
2022/03/12 08:13:32;;;;;;;4.63;3.63;;;3.20;49.40;;;;;;5109632;28;20478;-64
2022/03/12 08:15:59;;;;;;;3.17;2.80;;;3.30;50.00;;;;;;5115263;28;20228;-64
2022/03/12 08:18:25;;;;;;;3.88;2.80;;;3.30;49.30;;;;;;5105937;28;20028;-64
2022/03/12 08:20:52;;;;;;;4.78;2.80;;;3.20;49.40;;;;;;5108536;28;20038;-64
2022/03/12 08:23:17;;;;;;;3.15;2.80;;;3.20;49.70;;;;;;5113771;28;20034;-64
2022/03/12 08:25:43;;;;;;;4.57;3.70;;;3.20;49.70;;;;;;5114744;28;20012;-64
2022/03/12 08:28:09;;;;;;;4.43;2.90;;;3.30;49.70;;;;;;5114686;28;20436;-64
2022/03/12 08:30:36;;;;;;;4.10;2.92;;;3.30;49.50;;;;;;5114598;28;20063;-64
2022/03/12 08:33:03;;;;;;;5.72;3.80;;;3.30;49.80;;;;;;5114666;28;20039;-64
2022/03/12 08:35:29;;;;;;;4.05;2.85;;;3.30;49.70;;;;;;5111425;28;20391;-66
2022/03/12 08:37:54;;;;;;;3.90;2.65;;;3.40;49.70;;;;;;5114222;28;20051;-65
2022/03/12 08:40:25;;;;;;;4.68;3.03;;;3.40;49.70;;;;;;5114510;28;20022;-65
2022/03/12 08:42:55;;;;;;;5.88;2.83;;;3.40;49.70;;;;;;5113217;28;20027;-64
2022/03/12 08:45:21;;;;;;;5.10;3.28;;;3.40;50.30;;;;;;5114280;28;20101;-64
2022/03/12 08:47:47;;;;;;;7.15;3.83;;;3.40;49.80;;;;;;5113025;28;20479;-64
2022/03/12 08:50:13;;;;;;;5.15;3.72;;;3.50;49.40;;;;;;5098606;28;20106;-64
2022/03/12 08:52:41;;;;;;;4.28;3.20;;;3.60;49.00;;;;;;5107260;28;20030;-64
2022/03/12 08:55:07;;;;;;;5.50;3.05;;;3.50;49.00;;;;;;5114154;28;20020;-64
2022/03/12 08:57:33;;;;;;;5.57;4.00;;;3.50;49.10;;;;;;5114152;28;20032;-64
2022/03/12 08:59:59;;;;;;;5.68;3.10;;;3.60;48.70;;;;;;5100031;28;20480;-64
2022/03/12 09:02:25;;;;;;;6.95;4.38;;;3.50;48.60;;;;;;5102214;28;20414;-64
2022/03/12 09:04:52;;;;;;;6.93;3.45;;;3.60;48.20;;;;;;5113984;28;20098;-64
2022/03/12 09:07:19;;;;;;;9.73;4.82;;;3.60;48.20;;;;;;5113828;27;20727;-64
2022/03/12 09:09:46;;;;;;;6.15;3.33;;;3.60;48.00;;;;;;5089997;28;20020;-64
2022/03/12 09:12:12;;;;;;;8.00;4.30;;;3.60;48.10;;;;;;5113852;28;20551;-64
2022/03/12 09:14:38;;;;;;;6.05;3.15;;;3.60;48.20;;;;;;5113705;28;20107;-63
2022/03/12 09:17:05;;;;;;;4.50;3.10;;;3.50;48.20;;;;;;5102253;28;20027;-63
2022/03/12 09:19:32;;;;;;;4.20;3.03;;;3.50;48.40;;;;;;5090457;28;20029;-63
2022/03/12 09:21:59;;;;;;;6.18;4.00;;;3.60;48.80;;;;;;5107933;28;20390;-63
2022/03/12 09:24:25;;;;;;;3.67;2.90;;;3.60;48.50;;;;;;5113688;28;20027;-63
2022/03/12 09:26:50;;;;;;;4.00;2.90;;;3.60;48.60;;;;;;5086713;28;20031;-64
2022/03/12 09:29:17;;;;;;;4.28;3.47;;;3.60;48.90;;;;;;5113813;28;20250;-63
2022/03/12 09:31:43;;;;;;;4.28;2.72;;;3.60;48.70;;;;;;5113390;28;20106;-63
2022/03/12 09:34:09;;;;;;;2.97;2.67;;;3.60;48.70;;;;;;5113445;28;20387;-63
2022/03/12 09:36:36;;;;;;;2.83;2.53;;;3.60;49.00;;;;;;5113026;28;20039;-63
2022/03/12 09:39:04;;;;;;;5.47;3.80;;;3.50;49.00;;;;;;5113280;28;20491;-63
2022/03/12 09:41:30;;;;;;;7.03;4.10;;;3.60;48.90;;;;;;5113565;28;20023;-64
2022/03/12 09:43:56;;;;;;;4.10;3.00;;;3.60;48.80;;;;;;5095638;28;20019;-63
2022/03/12 09:46:22;;;;;;;7.03;4.75;;;3.60;49.00;;;;;;5112959;28;20509;-63
2022/03/12 09:48:48;;;;;;;7.20;4.60;;;3.60;49.40;;;;;;5094623;28;20040;-62
2022/03/12 09:51:14;;;;;;;7.78;4.32;;;3.60;49.40;;;;;;5085090;28;20031;-62
2022/03/12 09:53:41;;;;;;;8.55;5.80;;;3.60;49.40;;;;;;5112914;28;20028;-63
2022/03/12 09:56:06;;;;;;;12.05;8.02;;;3.60;50.00;;;;;;5108436;28;20028;-63
2022/03/12 09:58:32;;;;;;;8.07;5.15;;;3.70;49.80;;;;;;5098041;28;20020;-63
2022/03/12 10:01:01;;;;;;;13.68;8.48;;;3.70;49.10;;;;;;5080517;28;20052;-66
2022/03/12 10:03:27;;;;;;;11.93;8.13;;;3.70;48.60;;;;;;5088800;28;20020;-64
2022/03/12 10:05:52;;;;;;;8.07;5.15;;;3.80;48.00;;;;;;5094319;28;20099;-63
2022/03/12 10:08:18;;;;;;;7.70;4.35;;;3.80;48.10;;;;;;5095082;28;20035;-65
2022/03/12 10:10:45;;;;;;;7.40;4.35;;;3.80;48.50;;;;;;5082038;28;20024;-63
2022/03/12 10:13:11;;;;;;;8.93;6.85;;;3.70;48.90;;;;;;5082544;28;20024;-63
2022/03/12 10:15:37;;;;;;;7.18;5.00;;;3.80;49.10;;;;;;5085864;28;20016;-62
2022/03/12 10:18:03;;;;;;;10.07;6.80;;;3.80;49.00;;;;;;5090860;28;20067;-62
2022/03/12 10:20:30;;;;;;;9.38;5.65;;;3.80;48.50;;;;;;5084582;28;20031;-62
2022/03/12 10:22:56;;;;;;;9.70;5.50;;;3.80;48.30;;;;;;5098776;28;20112;-62
2022/03/12 10:25:23;;;;;;;9.98;6.78;;;3.80;48.60;;;;;;5081015;28;20493;-62
2022/03/12 10:27:50;;;;;;;7.43;4.55;;;3.90;49.20;;;;;;5079448;28;20043;-62
2022/03/12 10:30:16;;;;;;;9.20;5.07;;;3.90;49.10;;;;;;5090695;28;20055;-62
2022/03/12 10:32:46;;;;;;;9.20;7.13;;;3.90;49.30;;;;;;5103674;28;20038;-63
2022/03/12 10:35:16;;;;;;;7.97;4.57;;;4.00;49.40;;;;;;5104504;28;20417;-62
2022/03/12 10:37:43;;;;;;;8.10;5.95;;;4.00;49.60;;;;;;5102976;28;20062;-62
2022/03/12 10:40:20;;;;;;;8.98;5.22;;;4.00;49.80;;;;;;5104428;28;20024;-62
2022/03/12 10:42:49;;;;;;;9.35;6.20;;;4.10;49.90;;;;;;5100509;28;20045;-62
2022/03/12 10:45:29;;;;;;;8.25;5.00;;;4.20;50.30;;;;;;5106341;28;20410;-64
2022/03/12 10:48:03;;;;;;;8.18;6.15;;;4.10;50.40;;;;;;5099632;28;20027;-64
2022/03/12 10:50:39;;;;;;;9.18;6.60;;;4.20;50.40;;;;;;5082249;28;20013;-63
2022/03/12 10:53:07;;;;;;;7.95;5.22;;;4.20;49.10;;;;;;5099542;28;20147;-63
2022/03/12 10:55:40;;;;;;;8.55;6.65;;;4.20;48.70;;;;;;5096303;28;20035;-64
2022/03/12 10:58:15;;;;;;;6.68;4.25;;;4.20;48.50;;;;;;5104303;28;20023;-63
2022/03/12 11:01:01;;;;;;;5.53;4.35;;;4.10;48.40;;;;;;5093076;28;20599;-63
2022/03/12 11:03:33;;;;;;;6.43;3.70;;;4.10;48.90;;;;;;5098635;28;20024;-63
2022/03/12 11:05:59;;;;;;;6.30;4.63;;;4.10;49.20;;;;;;5105059;28;20027;-65
2022/03/12 11:08:31;;;;;;;7.55;5.53;;;4.10;49.50;;;;;;5100993;28;20479;-62
2022/03/12 11:11:11;;;;;;;7.20;4.32;;;4.20;49.60;;;;;;5106963;28;20103;-64
2022/03/12 11:13:49;;;;;;;5.65;3.65;;;4.20;49.40;;;;;;5109426;28;20178;-63
2022/03/12 11:16:35;;;;;;;7.05;4.90;;;4.20;49.70;;;;;;5106029;28;20020;-63
2022/03/12 11:19:12;;;;;;;7.75;5.38;;;4.20;49.10;;;;;;5097228;28;20070;-63
2022/03/12 11:21:51;;;;;;;7.55;4.32;;;4.30;48.90;;;;;;5106160;28;20382;-63
2022/03/12 11:24:23;;;;;;;6.13;4.82;;;4.30;48.90;;;;;;5099593;28;20028;-63
2022/03/12 11:27:01;;;;;;;6.03;3.78;;;4.30;48.50;;;;;;5095914;28;20020;-63
2022/03/12 11:29:30;;;;;;;7.93;5.20;;;4.30;48.40;;;;;;5096068;28;20512;-63
2022/03/12 11:32:05;;;;;;;6.88;4.13;;;4.30;48.60;;;;;;5111296;28;20558;-63
2022/03/12 11:34:34;;;;;;;6.95;5.10;;;4.30;48.60;;;;;;5091919;28;20472;-63
2022/03/12 11:37:14;;;;;;;6.20;4.00;;;4.40;48.50;;;;;;5091845;28;20071;-64
2022/03/12 11:39:48;;;;;;;10.27;5.28;;;4.40;48.20;;;;;;5078742;28;20387;-63
2022/03/12 11:42:23;;;;;;;7.35;4.00;;;4.40;47.80;;;;;;5089854;28;20019;-63
2022/03/12 11:44:54;;;;;;;7.32;5.22;;;4.40;47.80;;;;;;5083914;28;20028;-63
2022/03/12 11:47:27;;;;;;;7.57;5.43;;;4.40;47.70;;;;;;5080694;28;20502;-64
2022/03/12 11:49:55;;;;;;;6.35;4.00;;;4.50;47.50;;;;;;5077885;28;20439;-64
2022/03/12 11:52:21;;;;;;;6.25;5.00;;;4.40;47.60;;;;;;5075618;28;20021;-64
2022/03/12 11:54:50;;;;;;;18.65;5.28;;;4.50;47.70;;;;;;5081959;28;20035;-63
2022/03/12 11:57:27;;;;;;;5.25;4.32;;;4.60;47.60;;;;;;5084483;28;20376;-64
2022/03/12 11:59:55;;;;;;;5.20;3.45;;;4.60;47.20;;;;;;5091569;28;20025;-64
2022/03/12 12:02:24;;;;;;;4.88;3.38;;;4.60;47.40;;;;;;5082670;28;20069;-64
2022/03/12 12:04:53;;;;;;;4.75;3.75;;;4.50;47.70;;;;;;5108484;28;20436;-65
2022/03/12 12:07:20;;;;;;;4.57;4.10;;;4.60;47.30;;;;;;5085442;28;20016;-64
2022/03/12 12:09:45;;;;;;;4.75;4.20;;;4.60;47.20;;;;;;5079750;28;20024;-63
2022/03/12 12:12:14;;;;;;;4.85;3.47;;;4.60;47.10;;;;;;5081254;28;20086;-64
2022/03/12 12:14:41;;;;;;;4.60;4.10;;;4.60;47.30;;;;;;5093543;28;20572;-64
2022/03/12 12:17:07;;;;;;;4.57;3.90;;;4.70;46.60;;;;;;5084781;28;20046;-64
2022/03/12 12:19:34;;;;;;;5.43;4.30;;;4.70;46.30;;;;;;5085333;28;20031;-64
2022/03/12 12:22:03;;;;;;;6.60;3.85;;;4.80;46.70;;;;;;5081921;28;20042;-64
2022/03/12 12:24:35;;;;;;;3.92;3.00;;;4.70;46.70;;;;;;5095540;28;20024;-64
2022/03/12 12:27:06;;;;;;;5.75;4.03;;;4.70;46.90;;;;;;5098435;28;20047;-64
2022/03/12 12:29:41;;;;;;;4.65;2.92;;;4.70;46.70;;;;;;5090893;28;20157;-64
2022/03/12 12:32:08;;;;;;;4.50;3.90;;;4.70;46.90;;;;;;5090878;28;20635;-64
2022/03/12 12:34:35;;;;;;;4.60;3.72;;;4.70;46.60;;;;;;5090762;28;20515;-64
2022/03/12 12:37:04;;;;;;;5.63;4.53;;;4.80;46.70;;;;;;5108848;28;20118;-64
2022/03/12 12:39:30;;;;;;;5.60;3.40;;;4.80;46.60;;;;;;5087572;28;20536;-64
2022/03/12 12:42:01;;;;;;;5.88;4.13;;;4.80;46.40;;;;;;5095888;28;20072;-64
2022/03/12 12:44:42;;;;;;;6.85;4.95;;;4.80;46.00;;;;;;5104127;28;20024;-64
2022/03/12 12:47:15;;;;;;;4.72;3.13;;;4.80;46.20;;;;;;5092341;28;20357;-64
2022/03/12 12:49:43;;;;;;;5.57;4.03;;;4.80;46.10;;;;;;5081604;28;20085;-64
2022/03/12 12:52:10;;;;;;;4.03;3.08;;;4.80;45.70;;;;;;5108332;28;20023;-64
2022/03/12 12:54:56;;;;;;;5.30;4.00;;;4.80;45.70;;;;;;5083721;28;20028;-64
2022/03/12 12:57:36;;;;;;;4.38;3.20;;;4.90;46.00;;;;;;5087621;28;20059;-63
2022/03/12 13:00:21;;;;;;;4.70;3.63;;;4.80;46.30;;;;;;5091601;28;20411;-63